sensor_id;sensor_type;location;lat;lon;timestamp;temperature;humidity
25825;DHT22;13658;44.534;18.694;2023-06-22T00:02:18;21.60;99.90
25825;DHT22;13658;44.534;18.694;2023-06-22T00:04:44;21.60;99.90
25825;DHT22;13658;44.534;18.694;2023-06-22T00:07:10;21.60;99.90
25825;DHT22;13658;44.534;18.694;2023-06-22T00:09:36;21.50;99.90
25825;DHT22;13658;44.534;18.694;2023-06-22T00:12:02;21.50;99.90
25825;DHT22;13658;44.534;18.694;2023-06-22T00:14:29;21.50;99.90
25825;DHT22;13658;44.534;18.694;2023-06-22T00:16:55;21.50;99.90
25825;DHT22;13658;44.534;18.694;2023-06-22T00:19:23;21.50;99.90
25825;DHT22;13658;44.534;18.694;2023-06-22T00:21:50;21.50;99.90
25825;DHT22;13658;44.534;18.694;2023-06-22T00:24:22;21.50;99.90
25825;DHT22;13658;44.534;18.694;2023-06-22T00:26:49;21.40;99.90
25825;DHT22;13658;44.534;18.694;2023-06-22T00:29:15;21.50;99.90
25825;DHT22;13658;44.534;18.694;2023-06-22T00:31:41;21.40;99.90
25825;DHT22;13658;44.534;18.694;2023-06-22T00:34:08;21.40;99.90
25825;DHT22;13658;44.534;18.694;2023-06-22T00:36:35;21.40;99.90
25825;DHT22;13658;44.534;18.694;2023-06-22T00:39:03;21.30;99.90
25825;DHT22;13658;44.534;18.694;2023-06-22T00:41:29;21.30;99.90
25825;DHT22;13658;44.534;18.694;2023-06-22T00:43:57;21.30;99.90
25825;DHT22;13658;44.534;18.694;2023-06-22T00:46:24;21.30;99.90
25825;DHT22;13658;44.534;18.694;2023-06-22T00:48:51;21.30;99.90
25825;DHT22;13658;44.534;18.694;2023-06-22T00:51:18;21.30;99.90
25825;DHT22;13658;44.534;18.694;2023-06-22T00:53:46;21.20;99.90
25825;DHT22;13658;44.534;18.694;2023-06-22T00:56:13;21.20;99.90
25825;DHT22;13658;44.534;18.694;2023-06-22T00:58:39;21.10;99.90
25825;DHT22;13658;44.534;18.694;2023-06-22T01:01:07;21.00;99.90
25825;DHT22;13658;44.534;18.694;2023-06-22T01:03:33;21.00;99.90
25825;DHT22;13658;44.534;18.694;2023-06-22T01:06:08;20.90;99.90
25825;DHT22;13658;44.534;18.694;2023-06-22T01:08:56;20.90;99.90
25825;DHT22;13658;44.534;18.694;2023-06-22T01:11:36;20.90;99.90
25825;DHT22;13658;44.534;18.694;2023-06-22T01:14:45;20.80;99.90
25825;DHT22;13658;44.534;18.694;2023-06-22T01:17:14;20.80;99.90
25825;DHT22;13658;44.534;18.694;2023-06-22T01:19:45;20.80;99.90
25825;DHT22;13658;44.534;18.694;2023-06-22T01:22:33;20.70;99.90
25825;DHT22;13658;44.534;18.694;2023-06-22T01:25:12;20.60;99.90
25825;DHT22;13658;44.534;18.694;2023-06-22T01:30:45;20.50;99.90
25825;DHT22;13658;44.534;18.694;2023-06-22T01:33:13;20.60;99.90
25825;DHT22;13658;44.534;18.694;2023-06-22T01:35:40;20.60;99.90
25825;DHT22;13658;44.534;18.694;2023-06-22T01:38:07;20.50;99.90
25825;DHT22;13658;44.534;18.694;2023-06-22T01:40:34;20.50;99.90
25825;DHT22;13658;44.534;18.694;2023-06-22T01:43:01;20.50;99.90
25825;DHT22;13658;44.534;18.694;2023-06-22T01:45:28;20.40;99.90
25825;DHT22;13658;44.534;18.694;2023-06-22T01:47:54;20.30;99.90
25825;DHT22;13658;44.534;18.694;2023-06-22T01:50:21;20.30;99.90
25825;DHT22;13658;44.534;18.694;2023-06-22T01:52:48;20.30;99.90
25825;DHT22;13658;44.534;18.694;2023-06-22T01:55:14;20.30;99.90
25825;DHT22;13658;44.534;18.694;2023-06-22T01:57:40;20.30;99.90
25825;DHT22;13658;44.534;18.694;2023-06-22T02:00:18;20.30;99.90
25825;DHT22;13658;44.534;18.694;2023-06-22T02:03:08;20.20;99.90
25825;DHT22;13658;44.534;18.694;2023-06-22T02:05:43;20.30;99.90
25825;DHT22;13658;44.534;18.694;2023-06-22T02:08:13;20.20;99.90
25825;DHT22;13658;44.534;18.694;2023-06-22T02:10:44;20.30;99.90
25825;DHT22;13658;44.534;18.694;2023-06-22T02:13:11;20.30;99.90
25825;DHT22;13658;44.534;18.694;2023-06-22T02:15:38;20.20;99.90
25825;DHT22;13658;44.534;18.694;2023-06-22T02:18:04;20.20;99.90
25825;DHT22;13658;44.534;18.694;2023-06-22T02:20:30;20.20;99.90
25825;DHT22;13658;44.534;18.694;2023-06-22T02:22:56;20.20;99.90
25825;DHT22;13658;44.534;18.694;2023-06-22T02:25:22;20.20;99.90
25825;DHT22;13658;44.534;18.694;2023-06-22T02:27:48;20.20;99.90
25825;DHT22;13658;44.534;18.694;2023-06-22T02:30:16;20.20;99.90
25825;DHT22;13658;44.534;18.694;2023-06-22T02:32:42;20.30;99.90
25825;DHT22;13658;44.534;18.694;2023-06-22T02:35:12;20.30;99.90
25825;DHT22;13658;44.534;18.694;2023-06-22T02:37:38;20.30;99.90
25825;DHT22;13658;44.534;18.694;2023-06-22T02:40:10;20.30;99.90
25825;DHT22;13658;44.534;18.694;2023-06-22T02:42:39;20.30;99.90
25825;DHT22;13658;44.534;18.694;2023-06-22T02:45:06;20.30;99.90
25825;DHT22;13658;44.534;18.694;2023-06-22T02:47:32;20.30;99.90
25825;DHT22;13658;44.534;18.694;2023-06-22T02:49:58;20.30;99.90
25825;DHT22;13658;44.534;18.694;2023-06-22T02:52:24;20.30;99.90
25825;DHT22;13658;44.534;18.694;2023-06-22T02:54:50;20.30;99.90
25825;DHT22;13658;44.534;18.694;2023-06-22T02:57:16;20.30;99.90
25825;DHT22;13658;44.534;18.694;2023-06-22T02:59:43;20.30;99.90
25825;DHT22;13658;44.534;18.694;2023-06-22T03:02:11;20.30;99.90
25825;DHT22;13658;44.534;18.694;2023-06-22T03:04:38;20.40;99.90
25825;DHT22;13658;44.534;18.694;2023-06-22T03:07:04;20.40;99.90
25825;DHT22;13658;44.534;18.694;2023-06-22T03:09:31;20.30;99.90
25825;DHT22;13658;44.534;18.694;2023-06-22T03:11:58;20.30;99.90
25825;DHT22;13658;44.534;18.694;2023-06-22T03:14:30;20.20;99.90
25825;DHT22;13658;44.534;18.694;2023-06-22T03:16:56;20.30;99.90
25825;DHT22;13658;44.534;18.694;2023-06-22T03:19:27;20.30;99.90
25825;DHT22;13658;44.534;18.694;2023-06-22T03:21:55;20.30;99.90
25825;DHT22;13658;44.534;18.694;2023-06-22T03:24:21;20.30;99.90
25825;DHT22;13658;44.534;18.694;2023-06-22T03:26:47;20.30;99.90
25825;DHT22;13658;44.534;18.694;2023-06-22T03:29:13;20.40;99.90
25825;DHT22;13658;44.534;18.694;2023-06-22T03:31:39;20.40;99.90
25825;DHT22;13658;44.534;18.694;2023-06-22T03:34:06;20.40;99.90
25825;DHT22;13658;44.534;18.694;2023-06-22T03:36:32;20.50;99.90
25825;DHT22;13658;44.534;18.694;2023-06-22T03:38:58;20.50;99.90
25825;DHT22;13658;44.534;18.694;2023-06-22T03:41:23;20.60;99.90
25825;DHT22;13658;44.534;18.694;2023-06-22T03:43:50;20.70;99.90
25825;DHT22;13658;44.534;18.694;2023-06-22T03:46:16;20.70;99.90
25825;DHT22;13658;44.534;18.694;2023-06-22T03:48:42;20.70;99.90
25825;DHT22;13658;44.534;18.694;2023-06-22T03:51:08;20.80;99.90
25825;DHT22;13658;44.534;18.694;2023-06-22T03:53:34;20.80;99.90
25825;DHT22;13658;44.534;18.694;2023-06-22T03:56:00;20.90;99.90
25825;DHT22;13658;44.534;18.694;2023-06-22T03:58:26;20.90;99.90
25825;DHT22;13658;44.534;18.694;2023-06-22T04:00:58;21.00;99.90
25825;DHT22;13658;44.534;18.694;2023-06-22T04:03:25;21.00;99.90
25825;DHT22;13658;44.534;18.694;2023-06-22T04:05:51;21.10;99.90
25825;DHT22;13658;44.534;18.694;2023-06-22T04:08:18;21.20;99.90
25825;DHT22;13658;44.534;18.694;2023-06-22T04:10:44;21.30;99.90
25825;DHT22;13658;44.534;18.694;2023-06-22T04:13:10;21.40;99.90
25825;DHT22;13658;44.534;18.694;2023-06-22T04:15:36;21.40;99.90
25825;DHT22;13658;44.534;18.694;2023-06-22T04:18:02;21.50;99.90
25825;DHT22;13658;44.534;18.694;2023-06-22T04:20:28;21.60;99.90
25825;DHT22;13658;44.534;18.694;2023-06-22T04:22:54;21.60;99.90
25825;DHT22;13658;44.534;18.694;2023-06-22T04:25:21;21.70;99.90
25825;DHT22;13658;44.534;18.694;2023-06-22T04:27:48;21.80;99.90
25825;DHT22;13658;44.534;18.694;2023-06-22T04:30:14;22.00;99.90
25825;DHT22;13658;44.534;18.694;2023-06-22T04:32:44;22.20;99.90
25825;DHT22;13658;44.534;18.694;2023-06-22T04:35:11;22.30;99.90
25825;DHT22;13658;44.534;18.694;2023-06-22T04:37:37;22.50;99.90
25825;DHT22;13658;44.534;18.694;2023-06-22T04:40:05;22.50;99.90
25825;DHT22;13658;44.534;18.694;2023-06-22T04:42:34;22.60;99.90
25825;DHT22;13658;44.534;18.694;2023-06-22T04:45:01;22.60;99.90
25825;DHT22;13658;44.534;18.694;2023-06-22T04:47:27;22.70;99.90
25825;DHT22;13658;44.534;18.694;2023-06-22T04:49:53;22.90;99.90
25825;DHT22;13658;44.534;18.694;2023-06-22T04:52:19;23.00;99.90
25825;DHT22;13658;44.534;18.694;2023-06-22T04:54:46;23.10;99.90
25825;DHT22;13658;44.534;18.694;2023-06-22T04:57:16;23.20;99.90
25825;DHT22;13658;44.534;18.694;2023-06-22T04:59:42;23.30;99.90
25825;DHT22;13658;44.534;18.694;2023-06-22T05:02:08;23.50;99.90
25825;DHT22;13658;44.534;18.694;2023-06-22T05:04:34;23.70;99.90
25825;DHT22;13658;44.534;18.694;2023-06-22T05:07:09;23.90;99.90
25825;DHT22;13658;44.534;18.694;2023-06-22T05:09:35;24.00;99.90
25825;DHT22;13658;44.534;18.694;2023-06-22T05:12:02;24.10;99.90
25825;DHT22;13658;44.534;18.694;2023-06-22T05:14:29;24.30;99.90
25825;DHT22;13658;44.534;18.694;2023-06-22T05:16:56;24.50;99.90
25825;DHT22;13658;44.534;18.694;2023-06-22T05:19:25;24.70;99.90
25825;DHT22;13658;44.534;18.694;2023-06-22T05:21:57;24.90;99.90
25825;DHT22;13658;44.534;18.694;2023-06-22T05:24:23;25.10;99.90
25825;DHT22;13658;44.534;18.694;2023-06-22T05:26:49;25.40;99.90
25825;DHT22;13658;44.534;18.694;2023-06-22T05:29:14;25.50;99.90
25825;DHT22;13658;44.534;18.694;2023-06-22T05:31:40;25.60;99.90
25825;DHT22;13658;44.534;18.694;2023-06-22T05:34:07;25.90;99.90
25825;DHT22;13658;44.534;18.694;2023-06-22T05:36:33;26.10;99.90
25825;DHT22;13658;44.534;18.694;2023-06-22T05:38:59;26.30;99.90
25825;DHT22;13658;44.534;18.694;2023-06-22T05:41:25;26.50;99.90
25825;DHT22;13658;44.534;18.694;2023-06-22T05:43:51;26.50;99.90
25825;DHT22;13658;44.534;18.694;2023-06-22T05:46:17;26.90;99.90
25825;DHT22;13658;44.534;18.694;2023-06-22T05:48:43;26.90;99.90
25825;DHT22;13658;44.534;18.694;2023-06-22T05:51:09;27.10;99.90
25825;DHT22;13658;44.534;18.694;2023-06-22T05:53:35;27.30;99.90
25825;DHT22;13658;44.534;18.694;2023-06-22T05:56:01;27.30;99.90
25825;DHT22;13658;44.534;18.694;2023-06-22T05:58:27;27.50;99.90
25825;DHT22;13658;44.534;18.694;2023-06-22T06:00:53;27.80;99.90
25825;DHT22;13658;44.534;18.694;2023-06-22T06:03:19;28.00;99.90
25825;DHT22;13658;44.534;18.694;2023-06-22T06:05:44;28.00;99.90
25825;DHT22;13658;44.534;18.694;2023-06-22T06:08:11;28.30;99.90
25825;DHT22;13658;44.534;18.694;2023-06-22T06:10:37;28.50;99.90
25825;DHT22;13658;44.534;18.694;2023-06-22T06:13:03;28.70;99.90
25825;DHT22;13658;44.534;18.694;2023-06-22T06:15:34;28.90;99.90
25825;DHT22;13658;44.534;18.694;2023-06-22T06:18:00;28.90;99.90
25825;DHT22;13658;44.534;18.694;2023-06-22T06:20:26;29.10;99.90
25825;DHT22;13658;44.534;18.694;2023-06-22T06:22:55;29.50;99.90
25825;DHT22;13658;44.534;18.694;2023-06-22T06:25:22;29.60;99.90
25825;DHT22;13658;44.534;18.694;2023-06-22T06:27:49;29.80;99.90
25825;DHT22;13658;44.534;18.694;2023-06-22T06:30:17;30.00;99.90
25825;DHT22;13658;44.534;18.694;2023-06-22T06:32:44;30.20;99.90
25825;DHT22;13658;44.534;18.694;2023-06-22T06:35:12;30.30;99.90
25825;DHT22;13658;44.534;18.694;2023-06-22T06:37:40;30.70;99.90
25825;DHT22;13658;44.534;18.694;2023-06-22T06:40:10;31.00;99.90
25825;DHT22;13658;44.534;18.694;2023-06-22T06:42:43;31.20;99.90
25825;DHT22;13658;44.534;18.694;2023-06-22T06:45:12;31.30;99.90
25825;DHT22;13658;44.534;18.694;2023-06-22T06:47:39;31.20;99.90
25825;DHT22;13658;44.534;18.694;2023-06-22T06:50:07;31.50;99.90
25825;DHT22;13658;44.534;18.694;2023-06-22T06:52:33;31.60;99.90
25825;DHT22;13658;44.534;18.694;2023-06-22T06:55:00;32.10;99.90
25825;DHT22;13658;44.534;18.694;2023-06-22T06:57:28;32.30;99.90
25825;DHT22;13658;44.534;18.694;2023-06-22T06:59:56;32.50;99.90
25825;DHT22;13658;44.534;18.694;2023-06-22T07:02:23;32.70;99.90
25825;DHT22;13658;44.534;18.694;2023-06-22T07:04:50;32.80;99.90
25825;DHT22;13658;44.534;18.694;2023-06-22T07:07:16;33.10;99.90
25825;DHT22;13658;44.534;18.694;2023-06-22T07:09:42;33.40;99.90
25825;DHT22;13658;44.534;18.694;2023-06-22T07:12:08;33.70;99.90
25825;DHT22;13658;44.534;18.694;2023-06-22T07:14:34;33.80;99.90
25825;DHT22;13658;44.534;18.694;2023-06-22T07:17:00;34.00;99.90
25825;DHT22;13658;44.534;18.694;2023-06-22T07:19:27;34.30;99.90
25825;DHT22;13658;44.534;18.694;2023-06-22T07:21:54;34.40;99.90
25825;DHT22;13658;44.534;18.694;2023-06-22T07:24:21;34.70;99.90
25825;DHT22;13658;44.534;18.694;2023-06-22T07:26:50;34.70;99.90
25825;DHT22;13658;44.534;18.694;2023-06-22T07:29:22;34.80;99.90
25825;DHT22;13658;44.534;18.694;2023-06-22T07:31:50;34.80;99.90
25825;DHT22;13658;44.534;18.694;2023-06-22T07:34:17;35.10;99.90
25825;DHT22;13658;44.534;18.694;2023-06-22T07:36:43;35.10;99.90
25825;DHT22;13658;44.534;18.694;2023-06-22T07:39:10;35.10;99.90
25825;DHT22;13658;44.534;18.694;2023-06-22T07:41:36;35.20;99.90
25825;DHT22;13658;44.534;18.694;2023-06-22T07:44:02;35.10;99.90
25825;DHT22;13658;44.534;18.694;2023-06-22T07:46:29;35.00;99.90
25825;DHT22;13658;44.534;18.694;2023-06-22T07:48:56;35.30;99.90
25825;DHT22;13658;44.534;18.694;2023-06-22T07:51:23;35.50;99.90
25825;DHT22;13658;44.534;18.694;2023-06-22T07:53:49;35.90;99.90
25825;DHT22;13658;44.534;18.694;2023-06-22T07:56:15;35.70;99.90
25825;DHT22;13658;44.534;18.694;2023-06-22T07:58:46;36.20;99.90
25825;DHT22;13658;44.534;18.694;2023-06-22T08:01:13;36.40;99.90
25825;DHT22;13658;44.534;18.694;2023-06-22T08:03:40;36.60;99.90
25825;DHT22;13658;44.534;18.694;2023-06-22T08:06:07;37.30;99.90
25825;DHT22;13658;44.534;18.694;2023-06-22T08:08:35;37.70;99.90
25825;DHT22;13658;44.534;18.694;2023-06-22T08:11:01;38.10;99.90
25825;DHT22;13658;44.534;18.694;2023-06-22T08:13:27;38.30;99.90
25825;DHT22;13658;44.534;18.694;2023-06-22T08:15:53;37.70;99.90
25825;DHT22;13658;44.534;18.694;2023-06-22T08:18:19;37.60;99.90
25825;DHT22;13658;44.534;18.694;2023-06-22T08:20:46;37.60;99.90
25825;DHT22;13658;44.534;18.694;2023-06-22T08:23:12;38.10;99.90
25825;DHT22;13658;44.534;18.694;2023-06-22T08:25:38;38.40;99.90
25825;DHT22;13658;44.534;18.694;2023-06-22T08:28:07;38.70;99.90
25825;DHT22;13658;44.534;18.694;2023-06-22T08:30:35;39.40;99.90
25825;DHT22;13658;44.534;18.694;2023-06-22T08:33:01;38.50;99.90
25825;DHT22;13658;44.534;18.694;2023-06-22T08:35:28;39.10;99.90
25825;DHT22;13658;44.534;18.694;2023-06-22T08:37:54;39.10;99.90
25825;DHT22;13658;44.534;18.694;2023-06-22T08:40:22;38.90;99.90
25825;DHT22;13658;44.534;18.694;2023-06-22T08:42:49;38.70;99.90
25825;DHT22;13658;44.534;18.694;2023-06-22T08:45:15;39.50;99.90
25825;DHT22;13658;44.534;18.694;2023-06-22T08:47:42;39.40;99.90
25825;DHT22;13658;44.534;18.694;2023-06-22T08:50:12;39.60;99.90
25825;DHT22;13658;44.534;18.694;2023-06-22T08:52:39;39.40;99.90
25825;DHT22;13658;44.534;18.694;2023-06-22T08:55:09;38.80;99.90
25825;DHT22;13658;44.534;18.694;2023-06-22T08:57:36;38.80;99.90
25825;DHT22;13658;44.534;18.694;2023-06-22T09:00:08;38.70;99.90
25825;DHT22;13658;44.534;18.694;2023-06-22T09:02:40;38.70;99.90
25825;DHT22;13658;44.534;18.694;2023-06-22T09:05:06;38.70;99.90
25825;DHT22;13658;44.534;18.694;2023-06-22T09:07:33;38.40;99.90
25825;DHT22;13658;44.534;18.694;2023-06-22T09:10:00;38.60;99.90
25825;DHT22;13658;44.534;18.694;2023-06-22T09:12:26;38.70;99.90
25825;DHT22;13658;44.534;18.694;2023-06-22T09:14:53;39.20;99.90
25825;DHT22;13658;44.534;18.694;2023-06-22T09:17:19;39.30;99.90
25825;DHT22;13658;44.534;18.694;2023-06-22T09:19:45;39.70;99.90
25825;DHT22;13658;44.534;18.694;2023-06-22T09:22:11;40.40;99.90
25825;DHT22;13658;44.534;18.694;2023-06-22T09:24:37;40.50;99.90
25825;DHT22;13658;44.534;18.694;2023-06-22T09:27:03;40.20;99.90
25825;DHT22;13658;44.534;18.694;2023-06-22T09:29:29;40.90;99.90
25825;DHT22;13658;44.534;18.694;2023-06-22T09:31:59;40.40;99.90
25825;DHT22;13658;44.534;18.694;2023-06-22T09:34:25;40.40;99.90
25825;DHT22;13658;44.534;18.694;2023-06-22T09:36:51;41.00;99.90
25825;DHT22;13658;44.534;18.694;2023-06-22T09:39:20;40.20;99.90
25825;DHT22;13658;44.534;18.694;2023-06-22T09:41:46;40.60;99.90
25825;DHT22;13658;44.534;18.694;2023-06-22T09:44:12;41.20;99.90
25825;DHT22;13658;44.534;18.694;2023-06-22T09:46:38;41.10;99.90
25825;DHT22;13658;44.534;18.694;2023-06-22T09:49:04;40.60;99.90
25825;DHT22;13658;44.534;18.694;2023-06-22T09:51:30;40.90;99.90
25825;DHT22;13658;44.534;18.694;2023-06-22T09:53:56;41.00;99.90
25825;DHT22;13658;44.534;18.694;2023-06-22T09:56:22;41.20;99.90
25825;DHT22;13658;44.534;18.694;2023-06-22T09:58:48;41.10;99.90
25825;DHT22;13658;44.534;18.694;2023-06-22T10:01:18;41.10;99.90
25825;DHT22;13658;44.534;18.694;2023-06-22T10:03:44;41.30;99.90
25825;DHT22;13658;44.534;18.694;2023-06-22T10:06:10;41.20;99.90
25825;DHT22;13658;44.534;18.694;2023-06-22T10:08:36;41.20;99.90
25825;DHT22;13658;44.534;18.694;2023-06-22T10:11:03;40.80;99.90
25825;DHT22;13658;44.534;18.694;2023-06-22T10:13:29;40.80;99.90
25825;DHT22;13658;44.534;18.694;2023-06-22T10:15:55;40.50;99.90
25825;DHT22;13658;44.534;18.694;2023-06-22T10:18:21;40.90;99.90
25825;DHT22;13658;44.534;18.694;2023-06-22T10:20:50;41.40;99.90
25825;DHT22;13658;44.534;18.694;2023-06-22T10:23:19;41.90;99.90
25825;DHT22;13658;44.534;18.694;2023-06-22T10:25:46;41.60;99.90
25825;DHT22;13658;44.534;18.694;2023-06-22T10:28:12;41.90;99.90
25825;DHT22;13658;44.534;18.694;2023-06-22T10:30:39;42.00;99.90
25825;DHT22;13658;44.534;18.694;2023-06-22T10:33:11;40.90;99.90
25825;DHT22;13658;44.534;18.694;2023-06-22T10:35:38;40.50;99.90
25825;DHT22;13658;44.534;18.694;2023-06-22T10:38:04;40.40;99.90
25825;DHT22;13658;44.534;18.694;2023-06-22T10:40:30;40.80;99.90
25825;DHT22;13658;44.534;18.694;2023-06-22T10:42:56;41.20;99.90
25825;DHT22;13658;44.534;18.694;2023-06-22T10:45:22;41.40;99.90
25825;DHT22;13658;44.534;18.694;2023-06-22T10:47:48;41.90;99.90
25825;DHT22;13658;44.534;18.694;2023-06-22T10:50:15;41.40;99.90
25825;DHT22;13658;44.534;18.694;2023-06-22T10:52:42;40.70;99.90
25825;DHT22;13658;44.534;18.694;2023-06-22T10:55:09;39.90;99.90
25825;DHT22;13658;44.534;18.694;2023-06-22T10:57:36;39.10;99.90
25825;DHT22;13658;44.534;18.694;2023-06-22T11:00:03;38.80;99.90
25825;DHT22;13658;44.534;18.694;2023-06-22T11:02:31;38.00;99.90
25825;DHT22;13658;44.534;18.694;2023-06-22T11:04:57;37.50;99.90
25825;DHT22;13658;44.534;18.694;2023-06-22T11:07:26;37.50;99.90
25825;DHT22;13658;44.534;18.694;2023-06-22T11:09:54;37.20;99.90
25825;DHT22;13658;44.534;18.694;2023-06-22T11:12:21;36.90;99.90
25825;DHT22;13658;44.534;18.694;2023-06-22T11:14:46;36.60;99.90
25825;DHT22;13658;44.534;18.694;2023-06-22T11:17:13;36.50;99.90
25825;DHT22;13658;44.534;18.694;2023-06-22T11:19:38;36.20;99.90
25825;DHT22;13658;44.534;18.694;2023-06-22T11:22:05;36.00;99.90
25825;DHT22;13658;44.534;18.694;2023-06-22T11:24:31;36.00;99.90
25825;DHT22;13658;44.534;18.694;2023-06-22T11:26:57;36.00;99.90
25825;DHT22;13658;44.534;18.694;2023-06-22T11:29:23;35.70;99.90
25825;DHT22;13658;44.534;18.694;2023-06-22T11:31:49;35.50;99.90
25825;DHT22;13658;44.534;18.694;2023-06-22T11:34:15;35.00;99.90
25825;DHT22;13658;44.534;18.694;2023-06-22T11:36:41;34.90;99.90
25825;DHT22;13658;44.534;18.694;2023-06-22T11:39:08;34.80;99.90
25825;DHT22;13658;44.534;18.694;2023-06-22T11:41:35;34.70;99.90
25825;DHT22;13658;44.534;18.694;2023-06-22T11:44:01;34.60;99.90
25825;DHT22;13658;44.534;18.694;2023-06-22T11:46:27;34.50;99.90
25825;DHT22;13658;44.534;18.694;2023-06-22T11:48:53;34.50;99.90
25825;DHT22;13658;44.534;18.694;2023-06-22T11:51:20;34.40;99.90
25825;DHT22;13658;44.534;18.694;2023-06-22T11:53:46;34.20;99.90
25825;DHT22;13658;44.534;18.694;2023-06-22T11:56:12;34.30;99.90
25825;DHT22;13658;44.534;18.694;2023-06-22T11:58:38;34.30;99.90
25825;DHT22;13658;44.534;18.694;2023-06-22T12:01:04;34.40;99.90
25825;DHT22;13658;44.534;18.694;2023-06-22T12:03:30;34.50;99.90
25825;DHT22;13658;44.534;18.694;2023-06-22T12:05:56;34.50;99.90
25825;DHT22;13658;44.534;18.694;2023-06-22T12:08:22;34.40;99.90
25825;DHT22;13658;44.534;18.694;2023-06-22T12:10:50;34.60;99.90
25825;DHT22;13658;44.534;18.694;2023-06-22T12:13:16;34.50;99.90
25825;DHT22;13658;44.534;18.694;2023-06-22T12:15:42;34.40;99.90
25825;DHT22;13658;44.534;18.694;2023-06-22T12:18:08;34.50;99.90
25825;DHT22;13658;44.534;18.694;2023-06-22T12:20:34;34.60;99.90
25825;DHT22;13658;44.534;18.694;2023-06-22T12:23:01;34.40;99.90
25825;DHT22;13658;44.534;18.694;2023-06-22T12:25:27;34.40;99.90
25825;DHT22;13658;44.534;18.694;2023-06-22T12:27:53;34.40;99.90
25825;DHT22;13658;44.534;18.694;2023-06-22T12:30:19;34.50;99.90
25825;DHT22;13658;44.534;18.694;2023-06-22T12:32:45;34.30;99.90
25825;DHT22;13658;44.534;18.694;2023-06-22T12:35:11;34.20;99.90
25825;DHT22;13658;44.534;18.694;2023-06-22T12:37:41;34.10;99.90
25825;DHT22;13658;44.534;18.694;2023-06-22T12:40:08;34.00;99.90
25825;DHT22;13658;44.534;18.694;2023-06-22T12:42:34;33.90;99.90
25825;DHT22;13658;44.534;18.694;2023-06-22T12:45:00;33.80;99.90
25825;DHT22;13658;44.534;18.694;2023-06-22T12:47:26;33.80;99.90
25825;DHT22;13658;44.534;18.694;2023-06-22T12:49:53;33.80;99.90
25825;DHT22;13658;44.534;18.694;2023-06-22T12:52:19;33.90;99.90
25825;DHT22;13658;44.534;18.694;2023-06-22T12:54:45;33.90;99.90
25825;DHT22;13658;44.534;18.694;2023-06-22T12:57:11;34.10;99.90
25825;DHT22;13658;44.534;18.694;2023-06-22T12:59:36;34.00;99.90
25825;DHT22;13658;44.534;18.694;2023-06-22T13:02:03;34.00;99.90
25825;DHT22;13658;44.534;18.694;2023-06-22T13:04:29;33.80;99.90
25825;DHT22;13658;44.534;18.694;2023-06-22T13:06:54;34.00;99.90
25825;DHT22;13658;44.534;18.694;2023-06-22T13:09:20;34.00;99.90
25825;DHT22;13658;44.534;18.694;2023-06-22T13:11:46;33.90;99.90
25825;DHT22;13658;44.534;18.694;2023-06-22T13:14:12;33.90;99.90
25825;DHT22;13658;44.534;18.694;2023-06-22T13:16:38;33.80;99.90
25825;DHT22;13658;44.534;18.694;2023-06-22T13:19:04;33.80;99.90
25825;DHT22;13658;44.534;18.694;2023-06-22T13:21:31;33.70;99.90
25825;DHT22;13658;44.534;18.694;2023-06-22T13:23:57;33.60;99.90
25825;DHT22;13658;44.534;18.694;2023-06-22T13:26:24;33.60;99.90
25825;DHT22;13658;44.534;18.694;2023-06-22T13:28:50;33.60;99.90
25825;DHT22;13658;44.534;18.694;2023-06-22T13:31:16;33.60;99.90
25825;DHT22;13658;44.534;18.694;2023-06-22T13:33:42;33.60;99.90
25825;DHT22;13658;44.534;18.694;2023-06-22T13:36:10;33.80;99.90
25825;DHT22;13658;44.534;18.694;2023-06-22T13:38:36;33.90;99.90
25825;DHT22;13658;44.534;18.694;2023-06-22T13:41:05;33.90;99.90
25825;DHT22;13658;44.534;18.694;2023-06-22T13:43:31;33.80;99.90
25825;DHT22;13658;44.534;18.694;2023-06-22T13:45:58;33.80;99.90
25825;DHT22;13658;44.534;18.694;2023-06-22T13:48:24;33.80;99.90
25825;DHT22;13658;44.534;18.694;2023-06-22T13:50:54;33.90;99.90
25825;DHT22;13658;44.534;18.694;2023-06-22T13:53:20;34.00;99.90
25825;DHT22;13658;44.534;18.694;2023-06-22T13:55:46;34.00;99.90
25825;DHT22;13658;44.534;18.694;2023-06-22T13:58:13;34.00;99.90
25825;DHT22;13658;44.534;18.694;2023-06-22T14:00:39;34.00;99.90
25825;DHT22;13658;44.534;18.694;2023-06-22T14:03:05;34.10;99.90
25825;DHT22;13658;44.534;18.694;2023-06-22T14:05:31;34.00;99.90
25825;DHT22;13658;44.534;18.694;2023-06-22T14:07:57;33.90;99.90
25825;DHT22;13658;44.534;18.694;2023-06-22T14:10:24;34.00;99.90
25825;DHT22;13658;44.534;18.694;2023-06-22T14:12:52;33.90;99.90
25825;DHT22;13658;44.534;18.694;2023-06-22T14:15:18;34.00;99.90
25825;DHT22;13658;44.534;18.694;2023-06-22T14:17:45;33.90;99.90
25825;DHT22;13658;44.534;18.694;2023-06-22T14:20:11;34.00;99.90
25825;DHT22;13658;44.534;18.694;2023-06-22T14:22:37;34.00;99.90
25825;DHT22;13658;44.534;18.694;2023-06-22T14:25:04;33.90;99.90
25825;DHT22;13658;44.534;18.694;2023-06-22T14:27:30;33.80;99.90
25825;DHT22;13658;44.534;18.694;2023-06-22T14:29:57;33.70;99.90
25825;DHT22;13658;44.534;18.694;2023-06-22T14:32:22;33.80;99.90
25825;DHT22;13658;44.534;18.694;2023-06-22T14:34:49;33.90;99.90
25825;DHT22;13658;44.534;18.694;2023-06-22T14:37:15;33.90;99.90
25825;DHT22;13658;44.534;18.694;2023-06-22T14:39:41;33.90;99.90
25825;DHT22;13658;44.534;18.694;2023-06-22T14:42:08;33.80;99.90
25825;DHT22;13658;44.534;18.694;2023-06-22T14:44:34;33.80;99.90
25825;DHT22;13658;44.534;18.694;2023-06-22T14:47:00;33.80;99.90
25825;DHT22;13658;44.534;18.694;2023-06-22T14:49:26;33.70;99.90
25825;DHT22;13658;44.534;18.694;2023-06-22T14:51:52;33.60;99.90
25825;DHT22;13658;44.534;18.694;2023-06-22T14:54:18;33.60;99.90
25825;DHT22;13658;44.534;18.694;2023-06-22T14:56:44;33.70;99.90
25825;DHT22;13658;44.534;18.694;2023-06-22T14:59:12;33.60;99.90
25825;DHT22;13658;44.534;18.694;2023-06-22T15:01:38;33.70;99.90
25825;DHT22;13658;44.534;18.694;2023-06-22T15:04:04;33.70;99.90
25825;DHT22;13658;44.534;18.694;2023-06-22T15:06:30;33.60;99.90
25825;DHT22;13658;44.534;18.694;2023-06-22T15:08:56;33.60;99.90
25825;DHT22;13658;44.534;18.694;2023-06-22T15:11:22;33.50;99.90
25825;DHT22;13658;44.534;18.694;2023-06-22T15:13:48;33.60;99.90
25825;DHT22;13658;44.534;18.694;2023-06-22T15:16:14;33.50;99.90
25825;DHT22;13658;44.534;18.694;2023-06-22T15:18:40;33.50;99.90